Time;durP1;ratioP1;P1;durP2;ratioP2;P2;SDS_P1;SDS_P2;PMS_P1;PMS_P2;Temp;Humidity;BMP_temperature;BMP_pressure;BME280_temperature;BME280_humidity;BME280_pressure;Samples;Min_cycle;Max_cycle;Signal;HPM_P1;HPM_P2
2021/12/21 00:00:34;;;;;;;13.52;3.53;;;6.30;94.30;;;;;;5047188;28;20057;-62
2021/12/21 00:03:01;;;;;;;17.13;3.95;;;6.30;94.30;;;;;;5047516;28;20045;-62
2021/12/21 00:05:28;;;;;;;14.15;4.15;;;6.30;94.30;;;;;;5046502;28;20044;-62
2021/12/21 00:07:57;;;;;;;20.63;4.38;;;6.30;94.40;;;;;;5045820;28;20558;-63
2021/12/21 00:10:27;;;;;;;20.35;7.07;;;6.20;94.50;;;;;;5047563;28;20135;-62
2021/12/21 00:18:05;;;;;;;11.57;3.40;;;6.20;94.60;;;;;;5045350;28;20076;-63
2021/12/21 00:20:52;;;;;;;10.57;3.60;;;6.20;94.70;;;;;;5046384;28;20082;-63
2021/12/21 00:23:31;;;;;;;13.52;4.00;;;6.30;94.70;;;;;;5044755;28;20132;-62
2021/12/21 00:26:00;;;;;;;13.20;3.63;;;6.30;94.60;;;;;;5046381;28;20087;-63
2021/12/21 00:28:32;;;;;;;9.90;3.22;;;6.20;94.60;;;;;;5047133;28;20045;-63
2021/12/21 00:30:59;;;;;;;13.20;4.18;;;6.20;94.60;;;;;;5047308;28;20111;-63
2021/12/21 00:33:26;;;;;;;15.63;3.97;;;6.30;94.70;;;;;;5047448;28;20053;-63
2021/12/21 00:35:53;;;;;;;17.42;3.75;;;6.20;94.70;;;;;;5047220;28;20528;-62
2021/12/21 00:38:19;;;;;;;12.30;4.30;;;6.30;94.80;;;;;;5048059;28;20092;-63
2021/12/21 00:40:46;;;;;;;17.15;3.67;;;6.30;94.80;;;;;;5047117;28;20049;-63
2021/12/21 00:43:13;;;;;;;13.27;3.92;;;6.30;94.70;;;;;;5045994;28;20084;-63
2021/12/21 00:45:40;;;;;;;16.55;3.47;;;6.30;94.80;;;;;;5045762;28;20327;-63
2021/12/21 00:48:07;;;;;;;18.67;4.57;;;6.20;94.80;;;;;;5029060;28;20174;-63
2021/12/21 00:50:33;;;;;;;15.85;3.45;;;6.30;94.80;;;;;;5047048;28;20085;-62
2021/12/21 00:53:00;;;;;;;7.65;3.35;;;6.30;94.90;;;;;;5046459;28;20106;-63
2021/12/21 00:55:27;;;;;;;18.67;5.63;;;6.30;94.90;;;;;;5046921;28;20075;-63
2021/12/21 00:57:53;;;;;;;8.88;3.72;;;6.20;94.90;;;;;;5045440;28;20190;-63
2021/12/21 01:00:22;;;;;;;10.57;3.55;;;6.20;95.00;;;;;;5045822;28;20095;-63
2021/12/21 01:02:49;;;;;;;12.95;3.33;;;6.30;95.10;;;;;;5041267;28;20073;-63
2021/12/21 01:05:43;;;;;;;12.70;3.92;;;6.30;95.10;;;;;;5045626;28;20076;-62
2021/12/21 01:08:07;;;;;;;10.63;3.22;;;6.30;95.40;;;;;;5045333;28;20095;-62
2021/12/21 01:10:50;;;;;;;17.48;6.60;;;6.30;95.10;;;;;;5045602;28;20053;-63
2021/12/21 01:13:31;;;;;;;6.72;3.22;;;6.30;95.10;;;;;;5046401;28;20113;-63
2021/12/21 01:16:37;;;;;;;8.45;3.03;;;6.30;95.00;;;;;;5048263;28;20045;-62
2021/12/21 01:21:25;;;;;;;9.40;2.63;;;6.20;95.20;;;;;;5050689;28;20049;-63
2021/12/21 01:24:07;;;;;;;9.40;3.25;;;6.20;95.20;;;;;;5049922;28;20166;-64
2021/12/21 01:26:54;;;;;;;7.45;2.55;;;6.20;95.20;;;;;;5051296;28;20092;-63
2021/12/21 01:32:15;;;;;;;10.25;2.70;;;6.20;95.30;;;;;;5051822;28;20087;-63
2021/12/21 01:35:04;;;;;;;11.38;3.80;;;6.20;95.40;;;;;;5051217;28;20140;-62
2021/12/21 01:40:11;;;;;;;11.48;2.75;;;6.30;95.30;;;;;;5049718;28;20389;-63
2021/12/21 01:50:36;;;;;;;7.53;2.42;;;6.10;95.50;;;;;;5050254;28;20099;-63
2021/12/21 01:53:03;;;;;;;6.95;2.70;;;6.10;95.70;;;;;;5050012;28;20084;-63
2021/12/21 01:55:30;;;;;;;6.43;2.78;;;6.40;95.70;;;;;;5050107;28;20128;-63
2021/12/21 01:57:56;;;;;;;9.30;2.63;;;6.20;95.60;;;;;;4706004;28;10000240;-64
2021/12/21 02:00:23;;;;;;;9.90;2.85;;;6.20;95.60;;;;;;5047464;28;20072;-63
2021/12/21 02:02:50;;;;;;;11.73;3.47;;;6.20;95.60;;;;;;5049834;28;20565;-62
2021/12/21 02:05:17;;;;;;;9.30;2.45;;;6.20;95.70;;;;;;5049720;28;20047;-63
2021/12/21 02:07:44;;;;;;;13.45;3.92;;;6.10;95.60;;;;;;5048975;28;20115;-63
2021/12/21 02:10:10;;;;;;;8.18;3.25;;;6.20;95.70;;;;;;5049642;28;20051;-63
2021/12/21 02:12:37;;;;;;;13.18;2.65;;;6.10;95.60;;;;;;5050227;28;20124;-63
2021/12/21 02:15:04;;;;;;;14.80;2.65;;;6.10;95.70;;;;;;5050041;28;20178;-63
2021/12/21 02:22:44;;;;;;;13.60;5.72;;;6.20;95.90;;;;;;5042602;28;20557;-64
2021/12/21 02:28:12;;;;;;;16.95;2.97;;;6.10;96.00;;;;;;5047817;28;20052;-63
2021/12/21 02:30:42;;;;;;;11.90;2.70;;;6.10;96.00;;;;;;5049185;28;20052;-63
2021/12/21 02:33:09;;;;;;;8.98;3.20;;;6.20;96.00;;;;;;5049644;28;20092;-63
2021/12/21 02:35:36;;;;;;;4.85;2.33;;;6.10;96.00;;;;;;5049135;28;20519;-63
2021/12/21 02:38:03;;;;;;;15.95;3.85;;;6.20;96.10;;;;;;5049645;28;20048;-63
2021/12/21 02:40:29;;;;;;;15.60;4.05;;;6.20;96.30;;;;;;5049133;28;20065;-63
2021/12/21 02:42:56;;;;;;;14.07;3.90;;;6.10;96.00;;;;;;5049206;28;20045;-63
2021/12/21 02:45:23;;;;;;;8.88;3.83;;;6.00;96.00;;;;;;5049411;28;20153;-63
2021/12/21 02:47:50;;;;;;;13.77;3.28;;;6.10;96.10;;;;;;5049127;28;20637;-63
2021/12/21 02:50:17;;;;;;;13.95;3.15;;;6.10;96.10;;;;;;5049043;28;20049;-64
2021/12/21 02:52:46;;;;;;;8.57;3.13;;;6.00;96.20;;;;;;5032051;28;20049;-63
2021/12/21 02:55:13;;;;;;;15.80;3.75;;;6.00;96.20;;;;;;5049349;28;20090;-63
2021/12/21 02:57:40;;;;;;;14.63;3.75;;;5.90;96.20;;;;;;5049129;28;20045;-63
2021/12/21 03:00:09;;;;;;;12.82;3.88;;;6.00;96.30;;;;;;5048909;28;20060;-63
2021/12/21 03:02:36;;;;;;;9.25;3.85;;;6.00;96.30;;;;;;5049192;28;20083;-63
2021/12/21 03:05:03;;;;;;;13.35;4.65;;;6.00;96.20;;;;;;5048634;28;20168;-62
2021/12/21 03:10:09;;;;;;;12.75;3.65;;;6.10;96.30;;;;;;5048906;28;20095;-63
2021/12/21 03:15:21;;;;;;;13.52;3.78;;;6.00;96.30;;;;;;5048763;28;20512;-62
2021/12/21 03:17:49;;;;;;;10.98;3.35;;;6.10;96.40;;;;;;5045691;28;20076;-62
2021/12/21 03:20:16;;;;;;;12.93;3.17;;;6.00;96.40;;;;;;5048832;28;20079;-63
2021/12/21 03:22:43;;;;;;;7.75;3.38;;;6.00;96.40;;;;;;5048140;28;20098;-63
2021/12/21 03:25:10;;;;;;;13.35;3.42;;;6.10;96.40;;;;;;5048787;28;20094;-63
2021/12/21 03:27:37;;;;;;;8.73;2.97;;;6.00;96.40;;;;;;5047143;28;20111;-63
2021/12/21 03:30:05;;;;;;;10.73;2.97;;;6.00;96.50;;;;;;5031064;28;20327;-63
2021/12/21 03:32:34;;;;;;;12.23;4.00;;;6.10;96.60;;;;;;5047640;28;20044;-63
2021/12/21 03:35:01;;;;;;;8.98;3.17;;;6.10;96.80;;;;;;5047294;28;20056;-63
2021/12/21 03:37:28;;;;;;;6.68;2.95;;;6.10;96.40;;;;;;5048388;28;20083;-62
2021/12/21 03:39:55;;;;;;;11.38;4.45;;;6.10;96.50;;;;;;5047395;28;20086;-62
2021/12/21 03:42:25;;;;;;;8.90;3.50;;;6.10;96.50;;;;;;5048287;28;20041;-62
2021/12/21 03:44:52;;;;;;;9.00;3.50;;;6.10;96.50;;;;;;5047050;28;20044;-62
2021/12/21 03:47:22;;;;;;;8.93;2.90;;;6.10;96.50;;;;;;5048086;28;20131;-62
2021/12/21 03:49:58;;;;;;;8.60;2.88;;;6.10;96.50;;;;;;5048441;28;20053;-62
2021/12/21 03:52:26;;;;;;;12.50;3.47;;;6.10;96.50;;;;;;5047815;28;20048;-62
2021/12/21 03:54:58;;;;;;;8.63;2.90;;;6.20;96.50;;;;;;5048309;28;20049;-62
2021/12/21 03:57:25;;;;;;;8.35;2.75;;;6.10;96.40;;;;;;5047217;28;20107;-63
2021/12/21 03:59:53;;;;;;;5.97;2.72;;;6.10;96.60;;;;;;5048388;28;20098;-62
2021/12/21 04:02:24;;;;;;;9.73;2.60;;;6.10;96.50;;;;;;5042553;28;20049;-62
2021/12/21 04:04:53;;;;;;;9.02;2.58;;;6.10;96.60;;;;;;5030814;28;20053;-62
2021/12/21 04:07:20;;;;;;;11.35;2.90;;;6.00;96.60;;;;;;5047007;28;20041;-61
2021/12/21 04:09:48;;;;;;;5.35;2.40;;;6.10;96.70;;;;;;5048586;28;20080;-62
2021/12/21 04:12:15;;;;;;;14.23;3.13;;;6.00;96.70;;;;;;5048431;28;20053;-62
2021/12/21 04:14:42;;;;;;;5.97;2.05;;;6.00;96.70;;;;;;5048209;28;20049;-62
2021/12/21 04:17:17;;;;;;;8.85;3.30;;;6.00;96.70;;;;;;5048888;28;20041;-62
2021/12/21 04:19:44;;;;;;;10.10;3.42;;;6.00;96.70;;;;;;5048109;28;20115;-62
2021/12/21 04:22:11;;;;;;;9.25;2.80;;;6.00;96.70;;;;;;5048224;28;20052;-63
2021/12/21 04:24:38;;;;;;;11.10;3.00;;;5.90;96.70;;;;;;5046498;28;20045;-62
2021/12/21 04:27:05;;;;;;;8.30;2.72;;;5.90;96.80;;;;;;5047980;28;20041;-62
2021/12/21 04:29:32;;;;;;;7.75;2.65;;;6.00;96.80;;;;;;5047618;28;20053;-62
2021/12/21 04:31:59;;;;;;;6.72;2.88;;;6.00;96.80;;;;;;5048399;28;20090;-63
2021/12/21 04:34:26;;;;;;;14.55;3.05;;;6.00;96.80;;;;;;5046442;28;20045;-63
2021/12/21 04:36:53;;;;;;;10.23;3.83;;;6.00;96.80;;;;;;5047827;28;20061;-63
2021/12/21 04:39:39;;;;;;;21.05;5.22;;;6.00;96.80;;;;;;5046180;28;20539;-64
2021/12/21 04:42:06;;;;;;;11.85;3.53;;;6.00;96.70;;;;;;5047922;28;20053;-62
2021/12/21 04:44:33;;;;;;;14.55;3.90;;;5.90;96.80;;;;;;5047683;28;20053;-62
2021/12/21 04:47:00;;;;;;;11.40;3.40;;;5.90;96.90;;;;;;5047678;28;20057;-62
2021/12/21 04:49:27;;;;;;;7.85;3.70;;;5.90;96.90;;;;;;5045911;28;20069;-63
2021/12/21 04:51:54;;;;;;;9.02;4.25;;;5.90;96.70;;;;;;5049983;28;20073;-63
2021/12/21 04:54:21;;;;;;;12.38;4.80;;;5.90;96.80;;;;;;5051197;28;20045;-63
2021/12/21 04:56:48;;;;;;;10.85;3.70;;;5.90;96.80;;;;;;5051628;28;20076;-62
2021/12/21 04:59:15;;;;;;;11.20;3.72;;;5.90;96.90;;;;;;5033716;28;20049;-63
2021/12/21 05:01:42;;;;;;;11.93;4.68;;;5.90;96.80;;;;;;5051528;28;20265;-63
2021/12/21 05:04:09;;;;;;;12.55;4.05;;;6.00;97.20;;;;;;5051040;28;20255;-63
2021/12/21 05:06:36;;;;;;;11.93;4.28;;;6.00;96.90;;;;;;5049939;28;20079;-63
2021/12/21 05:09:10;;;;;;;13.88;4.97;;;5.90;96.90;;;;;;5051260;28;20504;-62
2021/12/21 05:11:37;;;;;;;12.82;4.93;;;5.90;97.00;;;;;;5048798;28;20416;-63
2021/12/21 05:14:09;;;;;;;17.35;4.95;;;5.90;97.00;;;;;;5051114;28;20052;-63
2021/12/21 05:16:36;;;;;;;10.55;4.40;;;5.90;96.90;;;;;;5049214;28;20076;-62
2021/12/21 05:19:03;;;;;;;15.65;5.00;;;5.90;97.00;;;;;;5050921;28;20049;-63
2021/12/21 05:21:30;;;;;;;6.70;3.72;;;5.80;96.90;;;;;;5049509;28;20551;-62
2021/12/21 05:23:57;;;;;;;9.65;3.75;;;5.90;97.00;;;;;;5051009;28;20096;-63
2021/12/21 05:26:24;;;;;;;10.02;4.22;;;5.90;97.00;;;;;;5049448;28;20107;-63
2021/12/21 05:28:51;;;;;;;19.08;4.40;;;5.90;97.10;;;;;;5031314;28;20500;-63
2021/12/21 05:31:18;;;;;;;11.68;4.50;;;5.90;97.10;;;;;;5047802;28;20088;-63
2021/12/21 05:33:50;;;;;;;8.05;3.33;;;5.90;97.10;;;;;;5050296;28;20573;-62
2021/12/21 05:36:17;;;;;;;13.55;4.45;;;5.90;97.30;;;;;;5049741;28;20379;-62
2021/12/21 05:38:49;;;;;;;10.50;3.88;;;6.00;97.10;;;;;;5050827;28;20088;-63
2021/12/21 05:41:24;;;;;;;13.02;4.88;;;5.90;97.10;;;;;;5050356;28;20049;-62
2021/12/21 05:43:51;;;;;;;9.52;4.00;;;5.90;97.10;;;;;;5049464;28;20041;-62
2021/12/21 05:46:18;;;;;;;12.50;4.85;;;5.90;97.10;;;;;;5049907;28;20516;-64
2021/12/21 05:48:44;;;;;;;12.82;4.35;;;5.90;97.00;;;;;;5050311;28;20077;-63
2021/12/21 05:51:11;;;;;;;14.05;4.43;;;5.80;97.10;;;;;;5050198;28;20053;-61
2021/12/21 05:53:38;;;;;;;12.38;4.35;;;5.90;97.30;;;;;;5050531;28;20076;-63
2021/12/21 05:56:05;;;;;;;10.55;4.30;;;5.90;97.20;;;;;;5050145;28;20488;-63
2021/12/21 05:58:32;;;;;;;20.42;4.57;;;5.80;97.30;;;;;;5050146;28;20110;-63
2021/12/21 06:00:59;;;;;;;9.20;4.32;;;5.80;97.40;;;;;;5050022;28;20045;-62
2021/12/21 06:03:26;;;;;;;10.82;4.25;;;5.80;97.40;;;;;;5049364;28;20065;-63
2021/12/21 06:05:55;;;;;;;20.42;4.03;;;5.80;97.40;;;;;;5050014;28;20530;-63
2021/12/21 06:08:23;;;;;;;11.07;3.85;;;5.90;97.30;;;;;;5049995;28;20606;-62
2021/12/21 06:10:53;;;;;;;12.57;4.15;;;5.90;97.30;;;;;;5050197;28;20053;-63
2021/12/21 06:26:47;;;;;;;13.23;4.32;;;5.80;97.60;;;;;;5049385;28;20084;-63
2021/12/21 06:29:14;;;;;;;17.33;5.40;;;5.80;97.40;;;;;;5049567;28;20068;-62
2021/12/21 06:31:41;;;;;;;14.18;3.97;;;5.80;97.50;;;;;;5049738;28;20045;-62
2021/12/21 06:34:08;;;;;;;14.07;5.05;;;5.80;97.60;;;;;;5049477;28;20073;-61
2021/12/21 06:36:35;;;;;;;17.00;5.07;;;5.80;97.50;;;;;;5049645;28;20055;-62
2021/12/21 06:39:05;;;;;;;14.32;5.03;;;5.90;97.60;;;;;;5050181;28;20049;-61
2021/12/21 06:41:36;;;;;;;12.85;5.63;;;5.80;97.50;;;;;;5049567;28;20056;-62
2021/12/21 06:44:04;;;;;;;18.90;5.50;;;5.80;97.60;;;;;;5049210;28;20075;-62
2021/12/21 06:51:58;;;;;;;9.73;4.97;;;5.80;97.60;;;;;;5049495;28;20073;-62
2021/12/21 06:54:24;;;;;;;13.02;5.18;;;5.90;97.60;;;;;;5048751;28;20052;-63
2021/12/21 06:56:51;;;;;;;17.50;6.85;;;5.90;97.60;;;;;;5049081;28;20107;-63
2021/12/21 06:59:18;;;;;;;21.58;6.18;;;5.90;97.60;;;;;;5049046;28;20053;-61
2021/12/21 07:01:48;;;;;;;18.42;5.65;;;5.90;97.60;;;;;;5046754;28;20480;-63
2021/12/21 07:04:17;;;;;;;14.00;7.35;;;5.90;97.60;;;;;;5048617;28;20076;-64
2021/12/21 07:06:45;;;;;;;14.25;6.20;;;5.90;97.70;;;;;;5047930;28;20770;-63
2021/12/21 07:09:37;;;;;;;18.80;6.45;;;5.80;97.70;;;;;;5048705;28;20044;-62
2021/12/21 07:20:26;;;;;;;25.27;7.75;;;5.80;97.80;;;;;;5046750;28;20137;-62
2021/12/21 07:22:53;;;;;;;18.50;7.32;;;5.70;97.90;;;;;;5047636;28;20084;-63
2021/12/21 07:25:20;;;;;;;14.77;7.05;;;5.70;97.90;;;;;;5045655;28;20044;-62
2021/12/21 07:27:47;;;;;;;17.88;7.47;;;5.70;97.90;;;;;;5023993;28;20075;-63
2021/12/21 07:30:18;;;;;;;29.88;7.90;;;5.70;97.80;;;;;;5042711;28;20080;-63
2021/12/21 07:32:45;;;;;;;19.20;8.77;;;5.70;97.90;;;;;;5046530;28;20049;-63
2021/12/21 07:35:12;;;;;;;24.60;8.02;;;5.70;97.90;;;;;;5047580;28;20044;-62
2021/12/21 07:37:39;;;;;;;21.70;9.15;;;5.80;97.90;;;;;;5047706;28;20417;-62
2021/12/21 07:40:08;;;;;;;16.75;7.80;;;5.80;97.90;;;;;;4752170;28;10001082;-63
2021/12/21 07:42:35;;;;;;;23.75;8.00;;;5.90;97.90;;;;;;5043916;28;20295;-62
2021/12/21 07:45:01;;;;;;;20.55;8.73;;;5.90;97.80;;;;;;5044796;28;20135;-62
2021/12/21 07:47:28;;;;;;;23.27;7.93;;;5.80;97.80;;;;;;5044051;28;20114;-62
2021/12/21 07:49:55;;;;;;;18.08;7.47;;;5.80;97.80;;;;;;5045158;28;20053;-62
2021/12/21 07:52:22;;;;;;;21.15;7.35;;;5.80;98.10;;;;;;5039709;28;20140;-62
2021/12/21 07:54:49;;;;;;;16.63;7.85;;;5.80;97.90;;;;;;5044705;28;20049;-63
2021/12/21 07:57:16;;;;;;;18.98;7.30;;;5.80;97.90;;;;;;5043525;28;20363;-63
2021/12/21 07:59:43;;;;;;;17.02;7.53;;;5.80;98.00;;;;;;5044318;28;20503;-63
2021/12/21 08:02:11;;;;;;;25.30;7.88;;;5.80;98.00;;;;;;5044271;28;20106;-62
2021/12/21 08:04:39;;;;;;;19.45;7.57;;;5.80;98.00;;;;;;5044046;28;20045;-62
2021/12/21 08:07:11;;;;;;;19.70;8.07;;;5.80;97.90;;;;;;5044033;28;20412;-62
2021/12/21 08:09:42;;;;;;;29.20;8.18;;;5.80;97.90;;;;;;5044306;28;20059;-62
2021/12/21 08:14:43;;;;;;;18.52;7.40;;;5.80;97.80;;;;;;5044439;28;20049;-62
2021/12/21 08:17:10;;;;;;;19.73;6.97;;;5.80;97.90;;;;;;5042524;28;20118;-62
2021/12/21 08:19:42;;;;;;;17.15;7.82;;;5.80;97.90;;;;;;5043718;28;20052;-62
2021/12/21 08:22:09;;;;;;;18.00;7.53;;;5.80;97.90;;;;;;5044037;28;20045;-63
2021/12/21 08:24:35;;;;;;;15.13;6.97;;;5.90;97.90;;;;;;5044264;28;20048;-62
2021/12/21 08:27:03;;;;;;;22.30;8.52;;;5.90;97.80;;;;;;5046004;28;20080;-64
2021/12/21 08:29:30;;;;;;;17.05;8.32;;;5.90;97.80;;;;;;5045972;28;20103;-63
2021/12/21 08:31:57;;;;;;;21.77;8.40;;;5.90;97.60;;;;;;5047557;28;20045;-63
2021/12/21 08:34:24;;;;;;;17.60;8.30;;;5.90;97.40;;;;;;5047031;28;20041;-63
2021/12/21 08:36:52;;;;;;;14.90;7.68;;;5.80;97.50;;;;;;5045747;28;20053;-60
2021/12/21 08:39:23;;;;;;;29.30;9.70;;;5.80;97.60;;;;;;5047803;28;20723;-61
2021/12/21 08:41:56;;;;;;;22.20;8.68;;;5.80;97.30;;;;;;5045823;28;20084;-60
2021/12/21 08:44:24;;;;;;;29.83;9.20;;;5.80;97.60;;;;;;5045304;28;20072;-60
2021/12/21 08:46:52;;;;;;;17.52;8.18;;;5.80;97.20;;;;;;5047252;28;20106;-60
2021/12/21 08:49:19;;;;;;;22.00;8.63;;;5.80;97.10;;;;;;5047213;28;20049;-60
2021/12/21 08:51:46;;;;;;;25.25;8.80;;;5.80;97.10;;;;;;5047405;28;20092;-60
2021/12/21 08:54:13;;;;;;;18.52;10.63;;;5.80;97.00;;;;;;5046097;28;20103;-60
2021/12/21 08:56:40;;;;;;;16.50;9.63;;;5.90;97.10;;;;;;5045298;28;20045;-61
2021/12/21 08:59:07;;;;;;;21.13;8.60;;;5.90;96.90;;;;;;5046453;28;20731;-60
2021/12/21 09:01:34;;;;;;;25.92;9.93;;;5.90;97.00;;;;;;5046368;28;20049;-60
2021/12/21 09:04:01;;;;;;;32.45;11.35;;;6.00;96.90;;;;;;5045852;28;20072;-60
2021/12/21 09:06:29;;;;;;;16.73;8.77;;;6.00;96.60;;;;;;5046040;28;20048;-60
2021/12/21 09:08:56;;;;;;;23.02;9.45;;;6.00;96.50;;;;;;5046158;28;20433;-60
2021/12/21 09:11:23;;;;;;;34.50;12.25;;;6.00;96.20;;;;;;5046392;28;20074;-61
2021/12/21 09:13:49;;;;;;;24.00;9.65;;;6.00;96.20;;;;;;5046167;28;20080;-60
2021/12/21 09:16:17;;;;;;;26.02;11.65;;;6.00;96.10;;;;;;5045713;28;20049;-60
2021/12/21 09:18:44;;;;;;;23.85;11.20;;;6.00;95.90;;;;;;5045709;28;20099;-61
2021/12/21 09:21:11;;;;;;;30.92;12.20;;;6.00;95.90;;;;;;5045994;28;20172;-60
2021/12/21 09:23:39;;;;;;;29.02;10.90;;;6.00;95.70;;;;;;5045839;28;20041;-61
2021/12/21 09:26:12;;;;;;;31.47;10.87;;;6.10;95.70;;;;;;5045672;28;20561;-60
2021/12/21 09:28:39;;;;;;;25.67;9.80;;;6.20;95.50;;;;;;5045500;28;20278;-60
2021/12/21 09:31:05;;;;;;;24.75;11.65;;;6.10;95.20;;;;;;5045754;28;20056;-61
2021/12/21 09:33:32;;;;;;;19.90;11.43;;;6.10;95.00;;;;;;5043674;28;20061;-61
2021/12/21 09:35:59;;;;;;;31.73;12.25;;;6.10;95.10;;;;;;5045271;28;20140;-60
2021/12/21 09:38:26;;;;;;;37.25;12.70;;;6.20;94.90;;;;;;5044104;28;20143;-60
2021/12/21 09:40:54;;;;;;;35.72;12.20;;;6.20;94.80;;;;;;5045303;28;20052;-61
2021/12/21 09:43:22;;;;;;;25.88;12.57;;;6.20;94.60;;;;;;5045645;28;20045;-60
2021/12/21 09:45:49;;;;;;;31.80;13.85;;;6.20;94.50;;;;;;5045621;28;20374;-60
2021/12/21 09:48:16;;;;;;;30.45;12.60;;;6.20;94.30;;;;;;5044634;28;20053;-60
2021/12/21 09:50:44;;;;;;;26.75;12.60;;;6.20;94.40;;;;;;5045660;28;20048;-61
2021/12/21 09:53:10;;;;;;;31.35;12.90;;;6.20;94.40;;;;;;5044865;28;20102;-60
2021/12/21 09:55:42;;;;;;;23.20;12.73;;;6.20;94.20;;;;;;5044003;28;20051;-61
2021/12/21 09:58:09;;;;;;;24.88;13.05;;;6.20;93.90;;;;;;5045319;28;20704;-61
2021/12/21 10:00:36;;;;;;;24.40;12.40;;;6.20;93.90;;;;;;5043571;28;20044;-61
2021/12/21 10:03:05;;;;;;;37.35;14.23;;;6.30;93.90;;;;;;5043850;28;20045;-61
2021/12/21 10:05:36;;;;;;;39.40;15.10;;;6.20;93.60;;;;;;5047903;28;20052;-60
2021/12/21 10:08:08;;;;;;;32.72;12.82;;;6.20;93.40;;;;;;5043373;28;20052;-67
2021/12/21 10:10:43;;;;;;;32.25;13.38;;;6.30;93.70;;;;;;5042214;28;20081;-61
2021/12/21 10:13:15;;;;;;;32.30;12.38;;;6.30;93.30;;;;;;5044882;28;20080;-60
2021/12/21 10:15:44;;;;;;;30.33;12.32;;;6.40;93.40;;;;;;5044634;28;20045;-62
2021/12/21 10:18:11;;;;;;;30.80;13.18;;;6.40;93.30;;;;;;5043034;28;20084;-62
2021/12/21 10:20:43;;;;;;;29.88;13.45;;;6.40;93.20;;;;;;5043938;28;20128;-61
2021/12/21 10:23:21;;;;;;;30.90;13.00;;;6.40;93.00;;;;;;5044953;28;20646;-60
2021/12/21 10:25:48;;;;;;;25.77;11.82;;;6.40;92.80;;;;;;5044257;28;20102;-61
2021/12/21 10:28:45;;;;;;;42.50;15.48;;;6.40;93.00;;;;;;5043164;28;20057;-61
2021/12/21 10:31:13;;;;;;;32.40;12.85;;;6.40;91.70;;;;;;5032756;28;20057;-60
2021/12/21 10:33:43;;;;;;;22.70;11.60;;;6.40;92.80;;;;;;5042985;28;20047;-61
2021/12/21 10:36:11;;;;;;;28.67;13.20;;;6.50;92.80;;;;;;5041752;28;20072;-61
2021/12/21 10:38:43;;;;;;;26.17;12.60;;;6.40;92.60;;;;;;5043277;28;20126;-60
2021/12/21 10:41:21;;;;;;;24.30;10.93;;;6.50;92.80;;;;;;5041278;28;20044;-61
2021/12/21 10:44:15;;;;;;;29.60;13.88;;;6.50;92.10;;;;;;5043065;28;20061;-61
2021/12/21 10:46:50;;;;;;;26.65;13.13;;;6.50;91.30;;;;;;5042135;28;20133;-61
2021/12/21 10:49:31;;;;;;;27.80;11.68;;;6.50;92.80;;;;;;5043165;28;20407;-60
2021/12/21 10:52:07;;;;;;;32.20;12.45;;;6.60;92.60;;;;;;5042967;28;20085;-60
2021/12/21 10:54:42;;;;;;;28.55;13.18;;;6.60;91.60;;;;;;5042666;28;20140;-61
2021/12/21 10:57:11;;;;;;;27.58;12.80;;;6.60;92.30;;;;;;5041746;28;20077;-61
2021/12/21 10:59:40;;;;;;;24.73;11.35;;;6.60;92.50;;;;;;5036055;28;20500;-61
2021/12/21 11:02:11;;;;;;;33.95;14.02;;;6.60;92.10;;;;;;5041661;28;20076;-61
2021/12/21 11:04:46;;;;;;;27.83;12.27;;;6.60;92.30;;;;;;5043034;28;20454;-61
2021/12/21 11:09:55;;;;;;;21.27;11.20;;;6.70;92.30;;;;;;5043432;28;20041;-61
2021/12/21 11:12:23;;;;;;;34.70;13.05;;;6.70;92.40;;;;;;5043433;28;20080;-60
2021/12/21 11:14:51;;;;;;;23.40;12.00;;;6.80;92.10;;;;;;5043432;28;20094;-61
2021/12/21 11:17:19;;;;;;;31.35;11.63;;;6.80;92.00;;;;;;5042595;28;20045;-60
2021/12/21 11:19:46;;;;;;;34.55;12.38;;;6.80;91.90;;;;;;5042347;28;20067;-60
2021/12/21 11:22:13;;;;;;;25.50;12.57;;;6.80;91.70;;;;;;5043320;28;20044;-61
2021/12/21 11:24:40;;;;;;;24.90;12.55;;;6.80;91.70;;;;;;5041557;28;20053;-61
2021/12/21 11:27:07;;;;;;;26.67;11.93;;;6.90;91.70;;;;;;5041869;28;20118;-61
2021/12/21 11:29:34;;;;;;;25.30;11.73;;;6.80;91.70;;;;;;5041773;28;20044;-61
2021/12/21 11:32:03;;;;;;;25.17;12.35;;;6.90;91.10;;;;;;5025383;28;20481;-61
2021/12/21 11:34:32;;;;;;;24.33;10.30;;;6.90;91.40;;;;;;5042740;28;20185;-61
2021/12/21 11:39:44;;;;;;;33.17;14.02;;;6.90;90.60;;;;;;5042395;28;20099;-61
2021/12/21 11:42:35;;;;;;;26.00;12.52;;;6.90;91.10;;;;;;5044307;28;20407;-61
2021/12/21 11:45:19;;;;;;;22.50;10.98;;;6.90;90.50;;;;;;5042560;28;20040;-61
2021/12/21 11:48:11;;;;;;;22.73;10.68;;;6.90;90.10;;;;;;5043587;28;20074;-59
2021/12/21 11:50:39;;;;;;;29.08;10.40;;;7.00;88.80;;;;;;5042957;28;20076;-60
2021/12/21 11:53:08;;;;;;;16.10;9.65;;;6.90;90.40;;;;;;5045075;28;20048;-60
2021/12/21 11:55:37;;;;;;;19.30;9.00;;;6.90;90.50;;;;;;5046595;28;20053;-60
2021/12/21 11:58:19;;;;;;;17.95;9.18;;;7.00;90.40;;;;;;5045560;28;20044;-60
2021/12/21 12:01:01;;;;;;;30.08;9.43;;;7.00;88.10;;;;;;5043093;28;20087;-60
2021/12/21 12:03:30;;;;;;;20.02;9.30;;;7.00;87.70;;;;;;5043309;28;20048;-59
2021/12/21 12:05:58;;;;;;;27.92;9.98;;;7.00;90.00;;;;;;5043436;28;20049;-61
2021/12/21 12:08:27;;;;;;;24.23;9.95;;;7.00;90.00;;;;;;5045749;28;20421;-59
2021/12/21 12:10:57;;;;;;;16.98;8.73;;;7.10;90.20;;;;;;5045990;28;20531;-60
2021/12/21 12:13:43;;;;;;;24.52;9.07;;;7.10;90.10;;;;;;5045461;28;20037;-60
2021/12/21 12:16:12;;;;;;;22.85;9.20;;;7.10;86.80;;;;;;5044532;28;20331;-60
2021/12/21 12:18:43;;;;;;;14.93;7.72;;;7.20;90.00;;;;;;5043107;28;20472;-61
2021/12/21 12:21:14;;;;;;;20.80;8.10;;;7.20;89.00;;;;;;5045589;28;20099;-60
2021/12/21 12:23:54;;;;;;;15.25;7.53;;;7.20;85.30;;;;;;5043402;28;20459;-60
2021/12/21 12:26:28;;;;;;;18.55;7.65;;;7.10;87.40;;;;;;5045017;28;20053;-61
2021/12/21 12:28:56;;;;;;;13.70;7.20;;;7.20;88.50;;;;;;5045696;28;20197;-60
2021/12/21 12:32:05;;;;;;;15.63;7.25;;;7.20;88.60;;;;;;5043701;28;20545;-60
2021/12/21 12:34:34;;;;;;;18.75;8.25;;;7.10;84.00;;;;;;5043629;28;20076;-61
2021/12/21 12:37:01;;;;;;;16.88;6.95;;;7.10;88.40;;;;;;5045524;28;20045;-61
2021/12/21 12:39:32;;;;;;;15.68;7.78;;;7.00;87.20;;;;;;5044079;28;20088;-61
2021/12/21 12:42:07;;;;;;;16.25;8.13;;;7.00;88.10;;;;;;5045443;28;20445;-61
2021/12/21 12:44:35;;;;;;;12.40;7.25;;;7.00;85.90;;;;;;5045280;28;20077;-61
2021/12/21 12:47:06;;;;;;;16.90;7.65;;;7.00;88.60;;;;;;5044993;28;20064;-61
2021/12/21 12:49:34;;;;;;;22.63;9.65;;;7.10;88.40;;;;;;5045330;28;20145;-60
2021/12/21 12:52:04;;;;;;;19.00;8.43;;;7.00;87.70;;;;;;5044213;28;20041;-60
2021/12/21 12:54:31;;;;;;;19.70;7.85;;;7.00;88.00;;;;;;5045056;28;20739;-60
2021/12/21 12:56:58;;;;;;;20.25;8.00;;;7.00;87.70;;;;;;5027396;28;20159;-61
2021/12/21 12:59:25;;;;;;;21.95;7.72;;;6.90;88.00;;;;;;5045265;28;20488;-61
2021/12/21 13:01:53;;;;;;;16.63;8.07;;;7.00;87.70;;;;;;5044862;28;20126;-60
2021/12/21 13:04:20;;;;;;;21.02;8.55;;;7.00;86.90;;;;;;5046204;28;20095;-61
2021/12/21 13:06:51;;;;;;;13.98;8.40;;;6.90;88.30;;;;;;5043292;28;20053;-60
2021/12/21 13:09:20;;;;;;;22.70;9.10;;;6.90;87.90;;;;;;5046465;28;20045;-61
2021/12/21 13:11:47;;;;;;;20.60;8.60;;;7.00;88.50;;;;;;5045711;28;20496;-61
2021/12/21 13:14:15;;;;;;;16.30;8.00;;;7.00;88.10;;;;;;5049008;28;20132;-61
2021/12/21 13:16:42;;;;;;;20.05;7.75;;;7.00;88.10;;;;;;5048707;28;20045;-62
2021/12/21 13:19:11;;;;;;;26.77;8.60;;;7.10;87.40;;;;;;5050044;28;20053;-61
2021/12/21 13:21:54;;;;;;;20.83;7.97;;;7.10;87.10;;;;;;5050365;28;20076;-61
2021/12/21 13:24:22;;;;;;;15.38;7.88;;;7.00;87.30;;;;;;5050129;28;20052;-61
2021/12/21 13:26:58;;;;;;;26.92;8.73;;;7.00;87.80;;;;;;5049204;28;20057;-61
2021/12/21 13:29:26;;;;;;;23.35;9.88;;;7.10;87.50;;;;;;5047930;28;20041;-61
2021/12/21 13:31:54;;;;;;;27.67;10.18;;;7.00;87.70;;;;;;5049019;28;20053;-62
2021/12/21 13:34:24;;;;;;;24.95;8.55;;;7.00;87.50;;;;;;4699045;28;10000823;-61
2021/12/21 13:36:53;;;;;;;19.60;8.60;;;7.00;87.40;;;;;;5045726;28;20062;-62
2021/12/21 13:39:28;;;;;;;20.75;8.02;;;7.00;87.50;;;;;;5046277;28;20572;-62
2021/12/21 13:42:00;;;;;;;19.00;8.25;;;7.00;87.20;;;;;;5044896;28;20122;-61
2021/12/21 13:44:52;;;;;;;27.25;10.50;;;7.10;86.70;;;;;;5046108;28;20049;-60
2021/12/21 13:47:20;;;;;;;17.65;9.60;;;6.90;87.20;;;;;;5043786;28;20107;-60
2021/12/21 13:50:12;;;;;;;22.13;10.85;;;6.90;86.90;;;;;;5046696;28;20059;-61
2021/12/21 13:52:52;;;;;;;24.48;9.50;;;6.80;86.60;;;;;;5046631;28;20193;-61
2021/12/21 13:55:42;;;;;;;23.40;9.15;;;6.80;86.00;;;;;;5045601;28;20455;-60
2021/12/21 13:58:10;;;;;;;27.42;9.35;;;6.80;85.40;;;;;;5043082;28;20091;-61
2021/12/21 14:00:40;;;;;;;31.63;9.85;;;6.90;84.30;;;;;;5046583;28;20052;-61
2021/12/21 14:03:33;;;;;;;20.63;9.73;;;6.80;86.60;;;;;;5046417;28;20056;-60
2021/12/21 14:06:11;;;;;;;29.27;11.35;;;6.80;86.40;;;;;;5045489;28;20589;-60
2021/12/21 14:08:39;;;;;;;34.90;11.52;;;6.80;86.10;;;;;;5046435;28;20085;-60